메인 페이지
METAR-TAF:

METAR-TAF

공항 :

덴버 국제공항

덴버, 콜로라도, 미국

위도: 39-49-58N, 경도: 104-39-27W, 고도: 1655m

현재 날씨관측

예보는 26분 전, 16:53시(UTC)에 발표되었습니다.
6kt
온도 1°C
습도 59%
기압 1006 hPa
시정: 16.1km
고도 4000ft 상공 구름 조금
고도 10000ft 상공 구름 보통

METAR: KDEN 141653Z 26006KT 10SM FEW040 SCT100 01/M06 A2971 RMK AO2 SLP075 SHSN OMTNS DSNT NW T00061061

시각: 10:19 (17:19 UTC)

예보

예보는 1 시간 22분 전, 15:57시(UTC)에 발표되었습니다.
예보 대상 시간: 14일 16시부터 15일 18시까지 (UTC)
남서7kt
시정: 10km
고도 4000ft 상공 구름 조금
고도 8000ft 상공 구름 보통
고도 11000ft 상공 구름 보통
14일 1900시부터 (UTC)
9kt
시정: 10km
고도 6000ft 상공 구름 보통
고도 10000ft 상공 구름 많음
일시적
14일 23시부터 15일 01시까지 (UTC)
시정: 8.0km
고도 3000ft 상공 구름 많음
약한소낙눈
15일 0100시부터 (UTC)
남남서7kt
시정: 10km
고도 3000ft 상공 구름 보통
고도 6000ft 상공 구름 많음
15일 0600시부터 (UTC)
10kt
시정: 10km
고도 3000ft 상공 구름 보통
고도 6000ft 상공 구름 많음

TAF: KDEN 141557Z 1416/1518 23007KT P6SM FEW040 SCT080 SCT110 FM141900 36009KT P6SM SCT060 BKN100 TEMPO 1423/1501 5SM -SHSN BKN030 FM150100 21007KT P6SM SCT030 BKN060 FM150600 01010KT P6SM SCT030 BKN060

4,000개 이상의 공항 관측 자료 및 예보 (METAR 및 TAF 보고).

지도상에서 검색 가능한 기상관측소가 노란 점과 빨간 점으로 표시되어 있습니다.

기상관측소 명을 보려면 표시 위로 마우스를 이동하세요.

날씨 관측과 예보를 보려면 클릭하세요.

지도 변경 : 확대하려면 엑스 표시가 있는 녹색 버튼, 축소하려면 빼기 표시가 있는 녹색 버튼, 다음 페이지의 지도를 보려면 녹색 화살표를 클릭하세요.


METAR-TAF: